createdAt,value
2023-03-12T00:00:20.005Z,2.30
2023-03-12T00:02:46.834Z,2.30
2023-03-12T00:05:14.144Z,2.40
2023-03-12T00:07:40.888Z,2.50
2023-03-12T00:10:08.628Z,2.50
2023-03-12T00:12:35.693Z,2.60
2023-03-12T00:15:02.786Z,2.70
2023-03-12T00:17:30.286Z,2.70
2023-03-12T00:19:57.208Z,2.80
2023-03-12T00:22:25.541Z,2.80
2023-03-12T00:24:55.346Z,2.80
2023-03-12T00:27:24.175Z,2.80
2023-03-12T00:29:51.346Z,2.80
2023-03-12T00:32:18.260Z,2.80
2023-03-12T00:34:51.061Z,2.90
2023-03-12T00:37:18.555Z,2.90
2023-03-12T00:39:45.512Z,2.90
2023-03-12T00:42:12.534Z,2.90
2023-03-12T00:44:39.322Z,2.90
2023-03-12T00:47:07.094Z,2.90
2023-03-12T00:49:33.926Z,3.00
2023-03-12T00:52:00.678Z,2.90
2023-03-12T00:54:27.552Z,2.80
2023-03-12T00:56:54.410Z,2.90
2023-03-12T00:59:21.346Z,2.90
2023-03-12T01:01:48.294Z,2.80
2023-03-12T01:04:15.448Z,2.90
2023-03-12T01:06:42.382Z,2.90
2023-03-12T01:09:09.909Z,2.90
2023-03-12T01:11:38.633Z,2.90
2023-03-12T01:14:08.329Z,2.90
2023-03-12T01:16:35.368Z,3.00
2023-03-12T01:19:03.886Z,3.10
2023-03-12T01:21:31.494Z,3.20
2023-03-12T01:23:58.373Z,3.30
2023-03-12T01:26:25.689Z,3.20
2023-03-12T01:28:52.755Z,3.30
2023-03-12T01:31:20.451Z,3.30
2023-03-12T01:33:52.539Z,3.20
2023-03-12T01:36:24.078Z,3.30
2023-03-12T01:38:54.054Z,3.30
2023-03-12T01:41:22.608Z,3.40
2023-03-12T01:43:49.689Z,3.50
2023-03-12T01:46:22.757Z,3.50
2023-03-12T01:48:59.264Z,3.50
2023-03-12T01:51:33.292Z,3.50
2023-03-12T01:54:06.707Z,3.50
2023-03-12T01:56:36.742Z,3.50
2023-03-12T01:59:14.027Z,3.50
2023-03-12T02:01:43.221Z,3.50
2023-03-12T02:04:12.810Z,3.50
2023-03-12T02:06:52.698Z,3.60
2023-03-12T02:09:21.865Z,3.60
2023-03-12T02:11:49.462Z,3.60
2023-03-12T02:14:17.042Z,3.60
2023-03-12T02:16:45.112Z,3.60
2023-03-12T02:19:43.442Z,3.60
2023-03-12T02:22:12.166Z,3.60
2023-03-12T02:25:19.310Z,3.70
2023-03-12T02:27:46.674Z,3.80
2023-03-12T02:30:16.342Z,3.80
2023-03-12T02:32:46.617Z,3.80
2023-03-12T02:35:16.570Z,3.70
2023-03-12T02:37:53.764Z,3.80
2023-03-12T02:40:31.785Z,3.80
2023-03-12T02:42:59.994Z,3.70
2023-03-12T02:45:27.505Z,3.70
2023-03-12T02:47:54.332Z,3.70
2023-03-12T02:50:21.565Z,3.70
2023-03-12T02:52:48.481Z,3.70
2023-03-12T02:55:15.338Z,3.80
2023-03-12T02:57:43.704Z,3.80
2023-03-12T03:00:14.947Z,3.70
2023-03-12T03:02:45.896Z,3.80
2023-03-12T03:05:13.665Z,3.70
2023-03-12T03:07:40.661Z,3.80
2023-03-12T03:10:08.571Z,3.80
2023-03-12T03:12:36.851Z,3.70
2023-03-12T03:15:06.638Z,3.80
2023-03-12T03:17:33.565Z,3.80
2023-03-12T03:20:00.542Z,3.80
2023-03-12T03:22:27.820Z,3.80
2023-03-12T03:24:54.873Z,3.80
2023-03-12T03:27:21.729Z,3.80
2023-03-12T03:32:16.225Z,3.80
2023-03-12T03:34:43.141Z,3.80
2023-03-12T03:37:10.162Z,3.80
2023-03-12T03:39:37.121Z,3.80
2023-03-12T03:42:04.448Z,3.90
2023-03-12T03:44:33.295Z,3.90
2023-03-12T03:47:01.024Z,3.90
2023-03-12T03:49:27.820Z,3.90
2023-03-12T03:51:54.947Z,3.90
2023-03-12T03:54:31.050Z,3.90
2023-03-12T03:56:58.246Z,4.00
2023-03-12T03:59:25.045Z,4.00
2023-03-12T04:01:52.262Z,3.90
2023-03-12T04:04:19.214Z,3.90
2023-03-12T04:06:46.069Z,3.90
2023-03-12T04:09:13.877Z,3.90
2023-03-12T04:11:40.845Z,4.00
2023-03-12T04:14:09.071Z,3.90
2023-03-12T04:16:38.511Z,3.90
2023-03-12T04:19:05.546Z,3.90
2023-03-12T04:21:32.541Z,3.90
2023-03-12T04:23:59.367Z,3.90
2023-03-12T04:26:30.409Z,3.90
2023-03-12T04:28:57.772Z,3.90
2023-03-12T04:31:24.945Z,3.90
2023-03-12T04:33:51.924Z,3.90
2023-03-12T04:36:21.986Z,4.00
2023-03-12T04:38:50.386Z,3.90
2023-03-12T04:41:20.582Z,4.00
2023-03-12T04:44:03.549Z,4.00
2023-03-12T04:46:30.991Z,3.90
2023-03-12T04:49:02.423Z,3.90
2023-03-12T04:51:31.656Z,3.90
2023-03-12T04:53:59.121Z,3.90
2023-03-12T04:56:26.453Z,3.80
2023-03-12T04:58:53.562Z,3.90
2023-03-12T05:01:31.298Z,3.90
2023-03-12T05:03:58.379Z,3.80
2023-03-12T05:06:25.860Z,3.90
2023-03-12T05:08:53.798Z,3.90
2023-03-12T05:11:21.882Z,3.90
2023-03-12T05:13:49.679Z,3.90
2023-03-12T05:16:17.502Z,3.90
2023-03-12T05:18:45.474Z,3.90
2023-03-12T05:21:19.256Z,4.00
2023-03-12T05:23:48.340Z,4.00
2023-03-12T05:26:27.258Z,4.00
2023-03-12T05:29:02.166Z,4.00
2023-03-12T05:31:32.909Z,4.00
2023-03-12T05:34:00.636Z,4.10
2023-03-12T05:36:28.570Z,4.10
2023-03-12T05:38:56.073Z,4.10
2023-03-12T05:41:27.954Z,4.10
2023-03-12T05:43:59.083Z,4.10
2023-03-12T05:46:28.786Z,4.10
2023-03-12T05:48:55.984Z,4.00
2023-03-12T05:51:23.203Z,4.10
2023-03-12T05:53:50.773Z,4.10
2023-03-12T05:56:18.825Z,4.20
2023-03-12T05:58:48.225Z,4.20
2023-03-12T06:01:21.595Z,4.10
2023-03-12T06:03:48.767Z,4.20
2023-03-12T06:06:16.120Z,4.20
2023-03-12T06:08:43.462Z,4.20
2023-03-12T06:11:12.592Z,4.10
2023-03-12T06:13:40.078Z,4.10
2023-03-12T06:16:20.491Z,4.10
2023-03-12T06:18:48.069Z,4.00
2023-03-12T06:21:24.461Z,4.00
2023-03-12T06:23:52.434Z,4.00
2023-03-12T06:26:25.781Z,4.00
2023-03-12T06:28:53.282Z,4.00
2023-03-12T06:31:21.980Z,4.00
2023-03-12T06:33:49.771Z,4.00
2023-03-12T06:36:17.264Z,4.00
2023-03-12T06:38:44.140Z,4.00
2023-03-12T06:41:15.406Z,4.00
2023-03-12T06:43:43.848Z,4.00
2023-03-12T06:46:16.586Z,3.90
2023-03-12T06:48:46.153Z,3.90
2023-03-12T06:51:15.847Z,4.00
2023-03-12T06:53:43.117Z,4.00
2023-03-12T06:56:11.341Z,4.00
2023-03-12T06:58:38.798Z,4.00
2023-03-12T07:01:06.242Z,4.00
2023-03-12T07:03:33.600Z,4.00
2023-03-12T07:06:00.599Z,4.00
2023-03-12T07:08:31.428Z,4.00
2023-03-12T07:11:02.367Z,4.00
2023-03-12T07:13:30.443Z,4.00
2023-03-12T07:15:57.659Z,4.10
2023-03-12T07:18:24.518Z,4.10
2023-03-12T07:20:52.770Z,4.10
2023-03-12T07:23:20.377Z,4.10
2023-03-12T07:25:47.984Z,4.20
2023-03-12T07:28:16.103Z,4.20
2023-03-12T07:30:47.874Z,4.20
2023-03-12T07:33:14.799Z,4.20
2023-03-12T07:35:41.674Z,4.20
2023-03-12T07:38:08.824Z,4.30
2023-03-12T07:40:36.774Z,4.20
2023-03-12T07:43:10.943Z,4.30
2023-03-12T07:45:39.307Z,4.30
2023-03-12T07:48:07.030Z,4.40
2023-03-12T07:50:34.772Z,4.30
2023-03-12T07:53:01.956Z,4.40
2023-03-12T07:55:28.940Z,4.50
2023-03-12T07:57:58.432Z,4.40
2023-03-12T08:00:27.094Z,4.50
2023-03-12T08:02:54.893Z,4.50
2023-03-12T08:05:24.647Z,4.50
2023-03-12T08:07:52.678Z,4.50
2023-03-12T08:10:21.245Z,4.50
2023-03-12T08:12:49.109Z,4.60
2023-03-12T08:15:16.808Z,4.70
2023-03-12T08:17:44.582Z,4.80
2023-03-12T08:20:12.514Z,4.70
2023-03-12T08:22:40.403Z,4.70
2023-03-12T08:25:08.705Z,4.80
2023-03-12T08:27:35.841Z,4.80
2023-03-12T08:30:03.965Z,4.90
2023-03-12T08:32:30.802Z,5.00
2023-03-12T08:34:57.831Z,4.90
2023-03-12T08:37:24.659Z,5.00
2023-03-12T08:39:51.491Z,5.00
2023-03-12T08:42:18.317Z,5.00
2023-03-12T08:44:45.126Z,5.10
2023-03-12T08:47:11.926Z,5.10
2023-03-12T08:49:38.727Z,5.10
2023-03-12T08:52:05.695Z,5.10
2023-03-12T08:54:32.566Z,5.20
2023-03-12T08:57:00.339Z,5.30
2023-03-12T08:59:27.187Z,5.30
2023-03-12T09:01:54.277Z,5.40
2023-03-12T09:04:21.113Z,5.50
2023-03-12T09:06:47.949Z,5.50
2023-03-12T09:09:14.827Z,5.60
2023-03-12T09:11:42.429Z,5.70
2023-03-12T09:16:57.677Z,5.90
2023-03-12T09:19:24.658Z,6.00
2023-03-12T09:21:51.482Z,6.00
2023-03-12T09:24:18.472Z,6.10
2023-03-12T09:26:45.252Z,6.20
2023-03-12T09:29:12.097Z,6.20
2023-03-12T09:31:39.172Z,6.30
2023-03-12T09:34:06.215Z,6.40
2023-03-12T09:36:33.727Z,6.50
2023-03-12T09:39:00.707Z,6.50
2023-03-12T09:41:36.129Z,6.50
2023-03-12T09:44:16.702Z,6.60
2023-03-12T09:47:07.609Z,6.70
2023-03-12T09:49:51.110Z,6.80
2023-03-12T09:52:35.759Z,6.80
2023-03-12T09:55:20.608Z,6.90
2023-03-12T09:57:51.164Z,7.00
2023-03-12T10:00:27.255Z,7.00
2023-03-12T10:03:30.743Z,7.20
2023-03-12T10:06:19.525Z,7.10
2023-03-12T10:09:17.138Z,7.30
2023-03-12T10:12:15.263Z,7.30
2023-03-12T10:15:07.177Z,7.30
2023-03-12T10:18:11.201Z,7.40
2023-03-12T10:21:02.108Z,7.50
2023-03-12T10:23:45.192Z,7.60
2023-03-12T10:26:39.866Z,7.60
2023-03-12T10:29:26.625Z,7.70
2023-03-12T10:31:57.305Z,7.80
2023-03-12T10:34:57.385Z,7.90
2023-03-12T10:37:54.326Z,8.00
2023-03-12T10:40:25.858Z,8.10
2023-03-12T10:42:53.684Z,8.20
2023-03-12T10:45:52.253Z,8.20
2023-03-12T10:48:24.088Z,8.30
2023-03-12T10:51:09.745Z,8.30
2023-03-12T10:53:47.943Z,8.40
2023-03-12T10:56:19.218Z,8.40
2023-03-12T10:58:50.149Z,8.40
2023-03-12T11:01:28.732Z,8.40
2023-03-12T11:04:21.294Z,8.40
2023-03-12T11:07:12.105Z,8.50
2023-03-12T11:09:39.043Z,8.40
2023-03-12T11:12:30.604Z,8.50
2023-03-12T11:14:58.765Z,8.60
2023-03-12T11:17:29.470Z,8.50
2023-03-12T11:19:56.385Z,8.60
2023-03-12T11:22:35.324Z,8.70
2023-03-12T11:25:07.629Z,8.70
2023-03-12T11:27:45.011Z,8.70
2023-03-12T11:30:16.673Z,8.70
2023-03-12T11:32:49.775Z,8.80
2023-03-12T11:35:32.331Z,8.80
2023-03-12T11:38:26.160Z,8.80
2023-03-12T11:41:11.713Z,8.80
2023-03-12T11:43:58.544Z,8.70
2023-03-12T11:46:28.104Z,8.80
2023-03-12T11:49:15.810Z,8.80
2023-03-12T11:52:27.440Z,9.00
2023-03-12T11:55:28.357Z,9.10
2023-03-12T11:58:26.579Z,9.00
2023-03-12T12:01:16.349Z,8.90
2023-03-12T12:04:10.530Z,9.00
2023-03-12T12:07:06.909Z,9.10
2023-03-12T12:10:01.741Z,9.20
2023-03-12T12:12:56.338Z,9.20
2023-03-12T12:15:55.641Z,9.20
2023-03-12T12:19:15.141Z,9.30
2023-03-12T12:21:56.810Z,9.40
2023-03-12T12:24:54.896Z,9.40
2023-03-12T12:27:28.733Z,9.40
2023-03-12T12:30:10.905Z,9.50
2023-03-12T12:32:58.754Z,9.60
2023-03-12T12:35:40.528Z,9.60
2023-03-12T12:38:35.510Z,9.60
2023-03-12T12:41:32.354Z,9.60
2023-03-12T12:44:15.124Z,9.60
2023-03-12T12:46:53.360Z,9.70
2023-03-12T12:49:43.639Z,9.70
2023-03-12T12:52:16.682Z,9.90
2023-03-12T12:55:10.847Z,9.90
2023-03-12T12:57:56.086Z,10.00
2023-03-12T13:00:49.689Z,10.00
2023-03-12T13:03:22.519Z,10.00
2023-03-12T13:06:02.706Z,10.30
2023-03-12T13:08:37.103Z,10.50
2023-03-12T13:11:23.251Z,10.30
2023-03-12T13:14:13.631Z,10.40
2023-03-12T13:16:46.652Z,10.40
2023-03-12T13:19:16.452Z,10.30
2023-03-12T13:22:24.737Z,10.40
2023-03-12T13:25:29.063Z,10.30
2023-03-12T13:28:56.761Z,10.20
2023-03-12T13:31:29.583Z,10.20
2023-03-12T13:34:20.485Z,10.30
2023-03-12T13:36:52.365Z,10.40
2023-03-12T13:39:32.005Z,10.30
2023-03-12T13:42:01.445Z,10.40
2023-03-12T13:44:31.252Z,10.60
2023-03-12T13:47:28.905Z,10.70
2023-03-12T13:50:08.034Z,10.80
2023-03-12T13:52:37.488Z,10.90
2023-03-12T13:55:13.302Z,10.90
2023-03-12T13:57:45.942Z,10.90
2023-03-12T14:00:29.688Z,10.90
2023-03-12T14:03:06.144Z,11.00
2023-03-12T14:05:53.024Z,11.00
2023-03-12T14:08:53.593Z,11.10
2023-03-12T14:11:44.305Z,11.20
2023-03-12T14:14:24.387Z,11.20
2023-03-12T14:16:55.750Z,11.10
2023-03-12T14:19:35.859Z,11.00
2023-03-12T14:22:08.101Z,11.10
2023-03-12T14:24:58.763Z,11.10
2023-03-12T14:27:31.079Z,11.10
2023-03-12T14:30:12.514Z,11.10
2023-03-12T14:32:42.236Z,11.30
2023-03-12T14:35:28.728Z,11.20
2023-03-12T14:38:17.818Z,11.20
2023-03-12T14:41:00.281Z,11.30
2023-03-12T14:43:34.232Z,11.30
2023-03-12T14:46:14.444Z,11.30
2023-03-12T14:48:41.318Z,11.20
2023-03-12T14:51:08.414Z,11.20
2023-03-12T14:53:37.866Z,11.20
2023-03-12T14:56:10.407Z,11.20
2023-03-12T14:58:46.033Z,11.20
2023-03-12T15:01:27.308Z,11.20
2023-03-12T15:04:05.040Z,11.30
2023-03-12T15:06:39.785Z,11.30
2023-03-12T15:09:08.463Z,11.30
2023-03-12T15:11:37.876Z,11.30
2023-03-12T15:14:14.874Z,11.30
2023-03-12T15:16:43.937Z,11.30
2023-03-12T15:19:18.456Z,11.30
2023-03-12T15:21:46.118Z,11.20
2023-03-12T15:24:14.530Z,11.30
2023-03-12T15:26:43.710Z,11.20
2023-03-12T15:29:28.951Z,11.10
2023-03-12T15:31:59.250Z,11.10
2023-03-12T15:34:36.766Z,11.10
2023-03-12T15:37:40.997Z,11.10
2023-03-12T15:40:22.708Z,11.10
2023-03-12T15:42:50.578Z,11.00
2023-03-12T15:45:39.155Z,11.00
2023-03-12T15:48:34.230Z,11.00
2023-03-12T15:51:01.270Z,11.10
2023-03-12T15:53:32.402Z,11.10
2023-03-12T15:56:20.261Z,11.00
2023-03-12T15:58:57.658Z,11.00
2023-03-12T16:01:28.042Z,11.00
2023-03-12T16:03:55.405Z,11.00
2023-03-12T16:06:27.928Z,11.00
2023-03-12T16:09:04.043Z,11.00
2023-03-12T16:11:35.598Z,11.00
2023-03-12T16:14:14.228Z,11.00
2023-03-12T16:16:41.158Z,11.00
2023-03-12T16:19:17.597Z,11.00
2023-03-12T16:21:45.907Z,11.00
2023-03-12T16:24:13.250Z,11.00
2023-03-12T16:26:58.476Z,10.90
2023-03-12T16:29:35.931Z,10.90
2023-03-12T16:32:11.010Z,10.90
2023-03-12T16:34:37.814Z,10.90
2023-03-12T16:37:04.695Z,10.90
2023-03-12T16:39:33.202Z,10.90
2023-03-12T16:42:05.050Z,10.90
2023-03-12T16:44:35.020Z,10.90
2023-03-12T16:47:01.952Z,10.90
2023-03-12T16:49:28.970Z,10.90
2023-03-12T16:51:55.797Z,10.90
2023-03-12T16:54:22.665Z,10.80
2023-03-12T16:56:49.644Z,10.80
2023-03-12T16:59:28.774Z,10.70
2023-03-12T17:01:56.575Z,10.70
2023-03-12T17:04:23.529Z,10.70
2023-03-12T17:06:50.408Z,10.70
2023-03-12T17:09:18.925Z,10.70
2023-03-12T17:11:46.593Z,10.60
2023-03-12T17:14:22.455Z,10.60
2023-03-12T17:16:49.544Z,10.60
2023-03-12T17:19:16.902Z,10.60
2023-03-12T17:21:44.887Z,10.50
2023-03-12T17:24:15.485Z,10.50
2023-03-12T17:26:45.379Z,10.50
2023-03-12T17:29:12.286Z,10.50
2023-03-12T17:31:39.140Z,10.40
2023-03-12T17:34:06.094Z,10.40
2023-03-12T17:36:37.769Z,10.50
2023-03-12T17:39:05.065Z,10.50
2023-03-12T17:41:33.371Z,10.40
2023-03-12T17:44:02.026Z,10.30
2023-03-12T17:46:30.527Z,10.40
2023-03-12T17:48:57.430Z,10.30
2023-03-12T17:51:25.033Z,10.30
2023-03-12T17:53:51.973Z,10.30
2023-03-12T17:56:18.844Z,10.30
2023-03-12T17:58:45.861Z,10.30
2023-03-12T18:01:13.926Z,10.40
2023-03-12T18:03:40.928Z,10.30
2023-03-12T18:06:07.776Z,10.30
2023-03-12T18:08:34.534Z,10.40
2023-03-12T18:11:03.024Z,10.40
2023-03-12T18:13:30.879Z,10.40
2023-03-12T18:15:59.232Z,10.30
2023-03-12T18:18:27.299Z,10.40
2023-03-12T18:20:54.111Z,10.40
2023-03-12T18:23:21.096Z,10.30
2023-03-12T18:25:47.955Z,10.30
2023-03-12T18:28:15.257Z,10.40
2023-03-12T18:30:44.621Z,10.30
2023-03-12T18:33:11.416Z,10.30
2023-03-12T18:35:38.230Z,10.30
2023-03-12T18:38:05.138Z,10.30
2023-03-12T18:40:33.110Z,10.40
2023-03-12T18:43:01.009Z,10.40
2023-03-12T18:45:29.188Z,10.30
2023-03-12T18:47:56.469Z,10.40
2023-03-12T18:50:23.442Z,10.40
2023-03-12T18:52:50.594Z,10.40
2023-03-12T18:55:17.668Z,10.40
2023-03-12T18:57:47.567Z,10.40
2023-03-12T19:00:19.975Z,10.40
2023-03-12T19:02:48.481Z,10.40
2023-03-12T19:05:16.411Z,10.40
2023-03-12T19:07:44.000Z,10.30
2023-03-12T19:10:13.078Z,10.30
2023-03-12T19:12:51.625Z,10.30
2023-03-12T19:15:23.881Z,10.30
2023-03-12T19:17:51.233Z,10.30
2023-03-12T19:20:18.805Z,10.20
2023-03-12T19:22:45.747Z,10.30
2023-03-12T19:25:12.985Z,10.30
2023-03-12T19:27:39.737Z,10.30
2023-03-12T19:30:07.683Z,10.30
2023-03-12T19:32:43.266Z,10.30
2023-03-12T19:35:13.860Z,10.30
2023-03-12T19:37:41.965Z,10.30
2023-03-12T19:40:10.779Z,10.30
2023-03-12T19:42:37.745Z,10.30
2023-03-12T19:45:05.118Z,10.30
2023-03-12T19:47:33.160Z,10.30
2023-03-12T19:50:00.743Z,10.30
2023-03-12T19:52:27.754Z,10.30
2023-03-12T19:55:03.794Z,10.30
2023-03-12T19:57:31.981Z,10.40
2023-03-12T19:59:58.917Z,10.40
2023-03-12T20:02:26.300Z,10.30
2023-03-12T20:04:53.273Z,10.40
2023-03-12T20:07:20.076Z,10.40
2023-03-12T20:09:46.832Z,10.40
2023-03-12T20:12:13.816Z,10.40
2023-03-12T20:14:42.644Z,10.50
2023-03-12T20:17:11.070Z,10.40
2023-03-12T20:19:38.839Z,10.40
2023-03-12T20:22:07.057Z,10.40
2023-03-12T20:24:34.120Z,10.40
2023-03-12T20:27:00.987Z,10.40
2023-03-12T20:29:27.786Z,10.40
2023-03-12T20:31:54.785Z,10.40
2023-03-12T20:34:22.014Z,10.40
2023-03-12T20:36:48.864Z,10.30
2023-03-12T20:39:15.743Z,10.40
2023-03-12T20:41:42.556Z,10.40
2023-03-12T20:44:09.328Z,10.40
2023-03-12T20:46:36.123Z,10.40
2023-03-12T20:49:02.942Z,10.40
2023-03-12T20:51:29.745Z,10.40
2023-03-12T20:53:57.669Z,10.40
2023-03-12T20:56:24.555Z,10.40
2023-03-12T20:58:52.205Z,10.30
2023-03-12T21:01:19.288Z,10.30
2023-03-12T21:03:46.128Z,10.40
2023-03-12T21:06:13.382Z,10.30
2023-03-12T21:08:40.641Z,10.30
2023-03-12T21:11:08.694Z,10.40
2023-03-12T21:13:36.610Z,10.40
2023-03-12T21:16:06.722Z,10.40
2023-03-12T21:18:34.305Z,10.30
2023-03-12T21:21:06.840Z,10.30
2023-03-12T21:23:35.291Z,10.40
2023-03-12T21:26:08.935Z,10.40
2023-03-12T21:28:36.145Z,10.40
2023-03-12T21:31:13.547Z,10.40
2023-03-12T21:33:40.765Z,10.30
2023-03-12T21:36:11.299Z,10.40
2023-03-12T21:38:39.944Z,10.30
2023-03-12T21:41:09.581Z,10.40
2023-03-12T21:43:37.276Z,10.30
2023-03-12T21:46:07.629Z,10.30
2023-03-12T21:48:35.456Z,10.30
2023-03-12T21:51:08.655Z,10.30
2023-03-12T21:53:36.069Z,10.30
2023-03-12T21:56:05.776Z,10.30
2023-03-12T21:58:34.094Z,10.20
2023-03-12T22:01:09.943Z,10.20
2023-03-12T22:03:38.274Z,10.20
2023-03-12T22:06:06.295Z,10.20
2023-03-12T22:08:34.438Z,10.20
2023-03-12T22:11:02.206Z,10.20
2023-03-12T22:13:29.269Z,10.10
2023-03-12T22:16:02.695Z,10.10
2023-03-12T22:18:30.211Z,10.10
2023-03-12T22:21:01.347Z,10.10
2023-03-12T22:23:29.194Z,10.10
2023-03-12T22:26:00.121Z,10.10
2023-03-12T22:28:27.191Z,10.00
2023-03-12T22:31:09.093Z,10.00
2023-03-12T22:33:37.008Z,10.00
2023-03-12T22:36:09.974Z,10.00
2023-03-12T22:38:38.945Z,10.00
2023-03-12T22:41:25.186Z,9.90
2023-03-12T22:43:55.696Z,9.90
2023-03-12T22:46:25.522Z,9.90
2023-03-12T22:48:56.755Z,9.90
2023-03-12T22:51:25.224Z,9.90
2023-03-12T22:53:52.430Z,9.90
2023-03-12T22:56:19.350Z,9.80
2023-03-12T22:58:47.506Z,9.90
2023-03-12T23:01:19.361Z,9.80
2023-03-12T23:03:47.858Z,9.90
2023-03-12T23:06:22.718Z,9.90
2023-03-12T23:08:50.336Z,9.90
2023-03-12T23:11:18.812Z,9.90
2023-03-12T23:13:48.012Z,9.90
2023-03-12T23:16:21.350Z,9.90
2023-03-12T23:18:49.588Z,9.90
2023-03-12T23:21:23.302Z,9.90
2023-03-12T23:23:51.540Z,9.90
2023-03-12T23:26:26.510Z,9.90
2023-03-12T23:28:58.838Z,9.90
2023-03-12T23:31:27.733Z,9.80
2023-03-12T23:33:56.613Z,9.80
2023-03-12T23:36:24.549Z,9.80
2023-03-12T23:38:51.670Z,9.80
2023-03-12T23:41:29.403Z,9.90
2023-03-12T23:43:58.236Z,9.80
2023-03-12T23:46:27.137Z,9.80
2023-03-12T23:48:54.720Z,9.80
2023-03-12T23:51:26.855Z,9.80
2023-03-12T23:54:00.425Z,9.80
2023-03-12T23:56:37.325Z,9.80
2023-03-12T23:59:06.432Z,9.80
